sensor_id;sensor_type;location;lat;lon;timestamp;P1;durP1;ratioP1;P2;durP2;ratioP2
7128;SDS011;3606;52.930;8.644;2024-02-26T00:01:42;5.13;;;4.63;;
7128;SDS011;3606;52.930;8.644;2024-02-26T00:04:11;6.83;;;5.23;;
7128;SDS011;3606;52.930;8.644;2024-02-26T00:06:37;7.13;;;5.20;;
7128;SDS011;3606;52.930;8.644;2024-02-26T00:09:06;5.97;;;5.27;;
7128;SDS011;3606;52.930;8.644;2024-02-26T00:11:32;6.63;;;5.13;;
7128;SDS011;3606;52.930;8.644;2024-02-26T00:13:57;7.27;;;5.73;;
7128;SDS011;3606;52.930;8.644;2024-02-26T00:16:23;8.37;;;5.80;;
7128;SDS011;3606;52.930;8.644;2024-02-26T00:18:49;7.97;;;6.07;;
7128;SDS011;3606;52.930;8.644;2024-02-26T00:21:15;7.00;;;5.23;;
7128;SDS011;3606;52.930;8.644;2024-02-26T00:23:41;7.47;;;5.30;;
7128;SDS011;3606;52.930;8.644;2024-02-26T00:26:06;6.40;;;5.47;;
7128;SDS011;3606;52.930;8.644;2024-02-26T00:28:32;5.83;;;5.23;;
7128;SDS011;3606;52.930;8.644;2024-02-26T00:30:58;7.10;;;5.77;;
7128;SDS011;3606;52.930;8.644;2024-02-26T00:33:24;8.80;;;6.80;;
7128;SDS011;3606;52.930;8.644;2024-02-26T00:35:50;7.37;;;6.00;;
7128;SDS011;3606;52.930;8.644;2024-02-26T00:38:15;7.80;;;6.47;;
7128;SDS011;3606;52.930;8.644;2024-02-26T00:40:41;8.70;;;6.60;;
7128;SDS011;3606;52.930;8.644;2024-02-26T00:43:07;7.37;;;6.13;;
7128;SDS011;3606;52.930;8.644;2024-02-26T00:45:32;9.53;;;6.33;;
7128;SDS011;3606;52.930;8.644;2024-02-26T00:47:58;9.93;;;6.97;;
7128;SDS011;3606;52.930;8.644;2024-02-26T00:50:29;12.63;;;7.73;;
7128;SDS011;3606;52.930;8.644;2024-02-26T00:52:55;12.37;;;8.67;;
7128;SDS011;3606;52.930;8.644;2024-02-26T00:55:20;10.47;;;7.37;;
7128;SDS011;3606;52.930;8.644;2024-02-26T00:57:46;9.90;;;7.53;;
7128;SDS011;3606;52.930;8.644;2024-02-26T01:00:12;12.00;;;8.63;;
7128;SDS011;3606;52.930;8.644;2024-02-26T01:02:38;13.40;;;8.50;;
7128;SDS011;3606;52.930;8.644;2024-02-26T01:05:04;8.83;;;7.40;;
7128;SDS011;3606;52.930;8.644;2024-02-26T01:07:31;11.30;;;8.60;;
7128;SDS011;3606;52.930;8.644;2024-02-26T01:10:00;12.30;;;8.60;;
7128;SDS011;3606;52.930;8.644;2024-02-26T01:12:27;11.93;;;9.10;;
7128;SDS011;3606;52.930;8.644;2024-02-26T01:14:52;11.27;;;8.50;;
7128;SDS011;3606;52.930;8.644;2024-02-26T01:17:18;11.40;;;9.40;;
7128;SDS011;3606;52.930;8.644;2024-02-26T01:19:43;12.13;;;9.33;;
7128;SDS011;3606;52.930;8.644;2024-02-26T01:22:09;13.00;;;9.20;;
7128;SDS011;3606;52.930;8.644;2024-02-26T01:24:35;11.30;;;9.07;;
7128;SDS011;3606;52.930;8.644;2024-02-26T01:27:00;12.40;;;8.93;;
7128;SDS011;3606;52.930;8.644;2024-02-26T01:29:26;12.17;;;9.13;;
7128;SDS011;3606;52.930;8.644;2024-02-26T01:31:51;13.13;;;9.20;;
7128;SDS011;3606;52.930;8.644;2024-02-26T01:34:17;15.47;;;8.80;;
7128;SDS011;3606;52.930;8.644;2024-02-26T01:36:43;12.27;;;9.07;;
7128;SDS011;3606;52.930;8.644;2024-02-26T01:39:09;13.90;;;9.07;;
7128;SDS011;3606;52.930;8.644;2024-02-26T01:41:38;13.57;;;9.40;;
7128;SDS011;3606;52.930;8.644;2024-02-26T01:44:05;11.70;;;9.50;;
7128;SDS011;3606;52.930;8.644;2024-02-26T01:46:31;14.80;;;9.93;;
7128;SDS011;3606;52.930;8.644;2024-02-26T01:48:59;12.63;;;9.70;;
7128;SDS011;3606;52.930;8.644;2024-02-26T01:51:26;13.13;;;9.70;;
7128;SDS011;3606;52.930;8.644;2024-02-26T01:53:52;13.17;;;8.53;;
7128;SDS011;3606;52.930;8.644;2024-02-26T01:56:18;9.97;;;8.17;;
7128;SDS011;3606;52.930;8.644;2024-02-26T01:58:46;13.30;;;8.90;;
7128;SDS011;3606;52.930;8.644;2024-02-26T02:01:13;12.50;;;8.40;;
7128;SDS011;3606;52.930;8.644;2024-02-26T02:03:41;11.07;;;8.83;;
7128;SDS011;3606;52.930;8.644;2024-02-26T02:06:07;12.27;;;8.90;;
7128;SDS011;3606;52.930;8.644;2024-02-26T02:08:33;14.03;;;9.57;;
7128;SDS011;3606;52.930;8.644;2024-02-26T02:11:00;11.80;;;9.03;;
7128;SDS011;3606;52.930;8.644;2024-02-26T02:13:25;13.07;;;9.40;;
7128;SDS011;3606;52.930;8.644;2024-02-26T02:15:51;11.37;;;7.83;;
7128;SDS011;3606;52.930;8.644;2024-02-26T02:18:19;11.03;;;8.10;;
7128;SDS011;3606;52.930;8.644;2024-02-26T02:20:45;11.70;;;8.47;;
7128;SDS011;3606;52.930;8.644;2024-02-26T02:23:10;11.03;;;7.83;;
7128;SDS011;3606;52.930;8.644;2024-02-26T02:25:36;10.77;;;7.60;;
7128;SDS011;3606;52.930;8.644;2024-02-26T02:28:02;10.57;;;8.47;;
7128;SDS011;3606;52.930;8.644;2024-02-26T02:30:29;9.40;;;7.67;;
7128;SDS011;3606;52.930;8.644;2024-02-26T02:32:55;11.43;;;8.83;;
7128;SDS011;3606;52.930;8.644;2024-02-26T02:35:23;10.23;;;8.03;;
7128;SDS011;3606;52.930;8.644;2024-02-26T02:37:51;13.47;;;9.20;;
7128;SDS011;3606;52.930;8.644;2024-02-26T02:40:17;13.50;;;8.43;;
7128;SDS011;3606;52.930;8.644;2024-02-26T02:42:43;13.30;;;9.07;;
7128;SDS011;3606;52.930;8.644;2024-02-26T02:45:11;12.67;;;9.60;;
7128;SDS011;3606;52.930;8.644;2024-02-26T02:47:37;12.23;;;8.60;;
7128;SDS011;3606;52.930;8.644;2024-02-26T02:50:03;12.93;;;9.53;;
7128;SDS011;3606;52.930;8.644;2024-02-26T02:52:29;15.63;;;9.40;;
7128;SDS011;3606;52.930;8.644;2024-02-26T02:54:54;11.97;;;9.30;;
7128;SDS011;3606;52.930;8.644;2024-02-26T02:57:20;11.20;;;8.77;;
7128;SDS011;3606;52.930;8.644;2024-02-26T02:59:46;12.57;;;9.13;;
7128;SDS011;3606;52.930;8.644;2024-02-26T03:02:11;13.47;;;9.93;;
7128;SDS011;3606;52.930;8.644;2024-02-26T03:04:37;12.70;;;9.17;;
7128;SDS011;3606;52.930;8.644;2024-02-26T03:07:03;14.83;;;10.03;;
7128;SDS011;3606;52.930;8.644;2024-02-26T03:09:28;13.67;;;9.03;;
7128;SDS011;3606;52.930;8.644;2024-02-26T03:11:54;14.20;;;9.27;;
7128;SDS011;3606;52.930;8.644;2024-02-26T03:14:20;11.80;;;9.93;;
7128;SDS011;3606;52.930;8.644;2024-02-26T03:16:45;15.27;;;10.13;;
7128;SDS011;3606;52.930;8.644;2024-02-26T03:19:13;14.93;;;10.20;;
7128;SDS011;3606;52.930;8.644;2024-02-26T03:21:41;13.67;;;9.87;;
7128;SDS011;3606;52.930;8.644;2024-02-26T03:24:07;13.43;;;9.73;;
7128;SDS011;3606;52.930;8.644;2024-02-26T03:26:35;13.17;;;10.30;;
7128;SDS011;3606;52.930;8.644;2024-02-26T03:29:01;14.53;;;10.10;;
7128;SDS011;3606;52.930;8.644;2024-02-26T03:31:27;13.23;;;9.30;;
7128;SDS011;3606;52.930;8.644;2024-02-26T03:33:53;12.37;;;9.47;;
7128;SDS011;3606;52.930;8.644;2024-02-26T03:36:19;15.03;;;10.53;;
7128;SDS011;3606;52.930;8.644;2024-02-26T03:38:46;14.60;;;9.63;;
7128;SDS011;3606;52.930;8.644;2024-02-26T03:41:12;15.43;;;10.70;;
7128;SDS011;3606;52.930;8.644;2024-02-26T03:43:37;16.50;;;11.13;;
7128;SDS011;3606;52.930;8.644;2024-02-26T03:46:03;13.40;;;10.20;;
7128;SDS011;3606;52.930;8.644;2024-02-26T03:48:29;14.07;;;10.20;;
7128;SDS011;3606;52.930;8.644;2024-02-26T03:50:54;15.50;;;10.83;;
7128;SDS011;3606;52.930;8.644;2024-02-26T03:53:20;17.10;;;11.33;;
7128;SDS011;3606;52.930;8.644;2024-02-26T03:55:45;14.53;;;11.10;;
7128;SDS011;3606;52.930;8.644;2024-02-26T03:58:12;16.73;;;11.80;;
7128;SDS011;3606;52.930;8.644;2024-02-26T04:00:38;15.17;;;11.80;;
7128;SDS011;3606;52.930;8.644;2024-02-26T04:03:03;16.73;;;11.67;;
7128;SDS011;3606;52.930;8.644;2024-02-26T04:05:29;15.10;;;12.30;;
7128;SDS011;3606;52.930;8.644;2024-02-26T04:07:54;17.57;;;12.47;;
7128;SDS011;3606;52.930;8.644;2024-02-26T04:10:20;20.20;;;12.00;;
7128;SDS011;3606;52.930;8.644;2024-02-26T04:12:46;17.80;;;11.77;;
7128;SDS011;3606;52.930;8.644;2024-02-26T04:15:11;17.20;;;12.10;;
7128;SDS011;3606;52.930;8.644;2024-02-26T04:17:37;15.40;;;11.47;;
7128;SDS011;3606;52.930;8.644;2024-02-26T04:20:04;16.30;;;11.13;;
7128;SDS011;3606;52.930;8.644;2024-02-26T04:22:33;14.53;;;10.63;;
7128;SDS011;3606;52.930;8.644;2024-02-26T04:24:58;16.80;;;11.90;;
7128;SDS011;3606;52.930;8.644;2024-02-26T04:27:24;17.13;;;11.67;;
7128;SDS011;3606;52.930;8.644;2024-02-26T04:29:50;15.77;;;11.40;;
7128;SDS011;3606;52.930;8.644;2024-02-26T04:32:15;16.73;;;12.60;;
7128;SDS011;3606;52.930;8.644;2024-02-26T04:34:41;15.30;;;11.93;;
7128;SDS011;3606;52.930;8.644;2024-02-26T04:37:07;18.57;;;12.63;;
7128;SDS011;3606;52.930;8.644;2024-02-26T04:39:33;17.30;;;12.43;;
7128;SDS011;3606;52.930;8.644;2024-02-26T04:41:58;18.03;;;12.00;;
7128;SDS011;3606;52.930;8.644;2024-02-26T04:44:24;18.57;;;12.50;;
7128;SDS011;3606;52.930;8.644;2024-02-26T04:46:50;15.57;;;11.50;;
7128;SDS011;3606;52.930;8.644;2024-02-26T04:49:15;18.60;;;12.10;;
7128;SDS011;3606;52.930;8.644;2024-02-26T04:51:41;20.00;;;13.03;;
7128;SDS011;3606;52.930;8.644;2024-02-26T04:54:06;16.27;;;12.90;;
7128;SDS011;3606;52.930;8.644;2024-02-26T04:56:32;14.93;;;11.70;;
7128;SDS011;3606;52.930;8.644;2024-02-26T04:58:57;16.37;;;11.53;;
7128;SDS011;3606;52.930;8.644;2024-02-26T05:01:23;15.90;;;11.73;;
7128;SDS011;3606;52.930;8.644;2024-02-26T05:03:49;15.30;;;11.20;;
7128;SDS011;3606;52.930;8.644;2024-02-26T05:06:14;19.97;;;12.83;;
7128;SDS011;3606;52.930;8.644;2024-02-26T05:08:40;18.80;;;13.00;;
7128;SDS011;3606;52.930;8.644;2024-02-26T05:11:06;17.03;;;12.13;;
7128;SDS011;3606;52.930;8.644;2024-02-26T05:13:31;16.90;;;11.90;;
7128;SDS011;3606;52.930;8.644;2024-02-26T05:15:57;17.00;;;12.23;;
7128;SDS011;3606;52.930;8.644;2024-02-26T05:18:23;18.77;;;11.63;;
7128;SDS011;3606;52.930;8.644;2024-02-26T05:20:49;16.63;;;12.00;;
7128;SDS011;3606;52.930;8.644;2024-02-26T05:23:14;14.43;;;11.13;;
7128;SDS011;3606;52.930;8.644;2024-02-26T05:25:40;19.27;;;11.87;;
7128;SDS011;3606;52.930;8.644;2024-02-26T05:28:06;17.90;;;12.57;;
7128;SDS011;3606;52.930;8.644;2024-02-26T05:30:32;16.30;;;11.83;;
7128;SDS011;3606;52.930;8.644;2024-02-26T05:32:57;18.57;;;12.23;;
7128;SDS011;3606;52.930;8.644;2024-02-26T05:35:23;18.17;;;11.37;;
7128;SDS011;3606;52.930;8.644;2024-02-26T05:37:50;17.30;;;12.03;;
7128;SDS011;3606;52.930;8.644;2024-02-26T05:40:16;15.87;;;11.33;;
7128;SDS011;3606;52.930;8.644;2024-02-26T05:42:42;19.03;;;12.33;;
7128;SDS011;3606;52.930;8.644;2024-02-26T05:45:09;14.97;;;11.17;;
7128;SDS011;3606;52.930;8.644;2024-02-26T05:47:35;18.73;;;12.20;;
7128;SDS011;3606;52.930;8.644;2024-02-26T05:50:01;17.63;;;11.93;;
7128;SDS011;3606;52.930;8.644;2024-02-26T05:52:27;20.90;;;11.60;;
7128;SDS011;3606;52.930;8.644;2024-02-26T05:54:54;15.07;;;11.07;;
7128;SDS011;3606;52.930;8.644;2024-02-26T05:57:20;18.77;;;11.63;;
7128;SDS011;3606;52.930;8.644;2024-02-26T05:59:45;18.07;;;11.30;;
7128;SDS011;3606;52.930;8.644;2024-02-26T06:02:11;18.30;;;11.57;;
7128;SDS011;3606;52.930;8.644;2024-02-26T06:04:36;16.47;;;11.47;;
7128;SDS011;3606;52.930;8.644;2024-02-26T06:07:02;17.70;;;11.83;;
7128;SDS011;3606;52.930;8.644;2024-02-26T06:09:28;17.33;;;11.60;;
7128;SDS011;3606;52.930;8.644;2024-02-26T06:11:53;16.07;;;11.40;;
7128;SDS011;3606;52.930;8.644;2024-02-26T06:14:19;16.43;;;11.70;;
7128;SDS011;3606;52.930;8.644;2024-02-26T06:16:45;17.83;;;11.47;;
7128;SDS011;3606;52.930;8.644;2024-02-26T06:19:11;20.30;;;12.13;;
7128;SDS011;3606;52.930;8.644;2024-02-26T06:21:37;18.83;;;11.83;;
7128;SDS011;3606;52.930;8.644;2024-02-26T06:24:02;17.07;;;11.70;;
7128;SDS011;3606;52.930;8.644;2024-02-26T06:26:28;19.70;;;11.97;;
7128;SDS011;3606;52.930;8.644;2024-02-26T06:28:54;18.83;;;12.23;;
7128;SDS011;3606;52.930;8.644;2024-02-26T06:31:21;15.97;;;10.43;;
7128;SDS011;3606;52.930;8.644;2024-02-26T06:33:48;19.33;;;11.77;;
7128;SDS011;3606;52.930;8.644;2024-02-26T06:36:14;19.97;;;11.37;;
7128;SDS011;3606;52.930;8.644;2024-02-26T06:38:40;15.43;;;11.60;;
7128;SDS011;3606;52.930;8.644;2024-02-26T06:41:06;16.47;;;11.87;;
7128;SDS011;3606;52.930;8.644;2024-02-26T06:43:32;16.30;;;11.80;;
7128;SDS011;3606;52.930;8.644;2024-02-26T06:45:57;19.13;;;11.87;;
7128;SDS011;3606;52.930;8.644;2024-02-26T06:48:23;19.07;;;12.13;;
7128;SDS011;3606;52.930;8.644;2024-02-26T06:50:49;16.87;;;12.07;;
7128;SDS011;3606;52.930;8.644;2024-02-26T06:53:15;21.47;;;13.00;;
7128;SDS011;3606;52.930;8.644;2024-02-26T06:55:41;22.13;;;12.73;;
7128;SDS011;3606;52.930;8.644;2024-02-26T06:58:07;24.23;;;13.33;;
7128;SDS011;3606;52.930;8.644;2024-02-26T07:00:33;19.20;;;13.20;;
7128;SDS011;3606;52.930;8.644;2024-02-26T07:02:59;18.80;;;12.77;;
7128;SDS011;3606;52.930;8.644;2024-02-26T07:05:25;20.87;;;13.23;;
7128;SDS011;3606;52.930;8.644;2024-02-26T07:07:51;21.37;;;13.93;;
7128;SDS011;3606;52.930;8.644;2024-02-26T07:10:18;23.60;;;13.63;;
7128;SDS011;3606;52.930;8.644;2024-02-26T07:12:44;23.00;;;14.57;;
7128;SDS011;3606;52.930;8.644;2024-02-26T07:15:09;24.43;;;14.50;;
7128;SDS011;3606;52.930;8.644;2024-02-26T07:17:35;24.17;;;15.07;;
7128;SDS011;3606;52.930;8.644;2024-02-26T07:20:01;24.77;;;15.40;;
7128;SDS011;3606;52.930;8.644;2024-02-26T07:22:29;24.43;;;15.20;;
7128;SDS011;3606;52.930;8.644;2024-02-26T07:24:55;32.13;;;16.27;;
7128;SDS011;3606;52.930;8.644;2024-02-26T07:27:21;26.47;;;17.20;;
7128;SDS011;3606;52.930;8.644;2024-02-26T07:29:46;25.50;;;16.70;;
7128;SDS011;3606;52.930;8.644;2024-02-26T07:32:12;29.90;;;17.50;;
7128;SDS011;3606;52.930;8.644;2024-02-26T07:34:38;32.20;;;18.77;;
7128;SDS011;3606;52.930;8.644;2024-02-26T07:37:06;28.93;;;18.23;;
7128;SDS011;3606;52.930;8.644;2024-02-26T07:39:33;31.27;;;18.20;;
7128;SDS011;3606;52.930;8.644;2024-02-26T07:41:58;35.40;;;19.70;;
7128;SDS011;3606;52.930;8.644;2024-02-26T07:44:24;31.13;;;18.40;;
7128;SDS011;3606;52.930;8.644;2024-02-26T07:46:50;33.87;;;19.67;;
7128;SDS011;3606;52.930;8.644;2024-02-26T07:49:15;32.07;;;18.57;;
7128;SDS011;3606;52.930;8.644;2024-02-26T07:51:41;43.20;;;20.90;;
7128;SDS011;3606;52.930;8.644;2024-02-26T07:54:07;30.70;;;19.70;;
7128;SDS011;3606;52.930;8.644;2024-02-26T07:56:32;35.10;;;19.50;;
7128;SDS011;3606;52.930;8.644;2024-02-26T07:58:58;33.10;;;18.97;;
7128;SDS011;3606;52.930;8.644;2024-02-26T08:01:24;39.03;;;19.67;;
7128;SDS011;3606;52.930;8.644;2024-02-26T08:03:51;41.10;;;21.33;;
7128;SDS011;3606;52.930;8.644;2024-02-26T08:06:18;36.60;;;19.50;;
7128;SDS011;3606;52.930;8.644;2024-02-26T08:08:43;33.57;;;20.53;;
7128;SDS011;3606;52.930;8.644;2024-02-26T08:11:09;35.07;;;18.90;;
7128;SDS011;3606;52.930;8.644;2024-02-26T08:13:35;34.27;;;19.70;;
7128;SDS011;3606;52.930;8.644;2024-02-26T08:16:01;38.60;;;19.83;;
7128;SDS011;3606;52.930;8.644;2024-02-26T08:18:26;33.57;;;18.77;;
7128;SDS011;3606;52.930;8.644;2024-02-26T08:20:52;38.13;;;20.20;;
7128;SDS011;3606;52.930;8.644;2024-02-26T08:23:17;35.57;;;20.10;;
7128;SDS011;3606;52.930;8.644;2024-02-26T08:25:43;36.00;;;19.37;;
7128;SDS011;3606;52.930;8.644;2024-02-26T08:28:09;34.43;;;18.70;;
7128;SDS011;3606;52.930;8.644;2024-02-26T08:30:38;32.70;;;17.53;;
7128;SDS011;3606;52.930;8.644;2024-02-26T08:33:03;34.87;;;19.63;;
7128;SDS011;3606;52.930;8.644;2024-02-26T08:35:29;31.17;;;18.70;;
7128;SDS011;3606;52.930;8.644;2024-02-26T08:37:55;31.30;;;17.73;;
7128;SDS011;3606;52.930;8.644;2024-02-26T08:40:20;32.83;;;18.63;;
7128;SDS011;3606;52.930;8.644;2024-02-26T08:42:46;28.87;;;17.37;;
7128;SDS011;3606;52.930;8.644;2024-02-26T08:45:12;28.87;;;17.03;;
7128;SDS011;3606;52.930;8.644;2024-02-26T08:47:38;31.90;;;18.57;;
7128;SDS011;3606;52.930;8.644;2024-02-26T08:50:04;25.50;;;16.87;;
7128;SDS011;3606;52.930;8.644;2024-02-26T08:52:30;27.17;;;16.80;;
7128;SDS011;3606;52.930;8.644;2024-02-26T08:54:56;27.90;;;16.90;;
7128;SDS011;3606;52.930;8.644;2024-02-26T08:57:22;28.10;;;17.23;;
7128;SDS011;3606;52.930;8.644;2024-02-26T08:59:47;25.93;;;16.33;;
7128;SDS011;3606;52.930;8.644;2024-02-26T09:02:13;30.23;;;16.00;;
7128;SDS011;3606;52.930;8.644;2024-02-26T09:04:39;27.60;;;17.23;;
7128;SDS011;3606;52.930;8.644;2024-02-26T09:07:05;26.83;;;16.17;;
7128;SDS011;3606;52.930;8.644;2024-02-26T09:09:31;25.10;;;15.93;;
7128;SDS011;3606;52.930;8.644;2024-02-26T09:11:56;27.03;;;14.70;;
7128;SDS011;3606;52.930;8.644;2024-02-26T09:14:22;25.83;;;14.70;;
7128;SDS011;3606;52.930;8.644;2024-02-26T09:16:48;26.93;;;16.20;;
7128;SDS011;3606;52.930;8.644;2024-02-26T09:19:14;23.93;;;15.27;;
7128;SDS011;3606;52.930;8.644;2024-02-26T09:21:43;23.60;;;14.33;;
7128;SDS011;3606;52.930;8.644;2024-02-26T09:24:11;25.43;;;14.73;;
7128;SDS011;3606;52.930;8.644;2024-02-26T09:26:37;20.03;;;12.80;;
7128;SDS011;3606;52.930;8.644;2024-02-26T09:29:03;21.50;;;12.83;;
7128;SDS011;3606;52.930;8.644;2024-02-26T09:31:29;20.23;;;12.60;;
7128;SDS011;3606;52.930;8.644;2024-02-26T09:33:55;20.10;;;13.70;;
7128;SDS011;3606;52.930;8.644;2024-02-26T09:36:21;21.00;;;13.77;;
7128;SDS011;3606;52.930;8.644;2024-02-26T09:38:47;17.00;;;12.13;;
7128;SDS011;3606;52.930;8.644;2024-02-26T09:41:14;21.13;;;12.67;;
7128;SDS011;3606;52.930;8.644;2024-02-26T09:43:41;20.50;;;12.97;;
7128;SDS011;3606;52.930;8.644;2024-02-26T09:46:10;20.27;;;12.17;;
7128;SDS011;3606;52.930;8.644;2024-02-26T09:48:35;21.57;;;11.80;;
7128;SDS011;3606;52.930;8.644;2024-02-26T09:51:02;19.30;;;12.30;;
7128;SDS011;3606;52.930;8.644;2024-02-26T09:53:29;18.57;;;11.60;;
7128;SDS011;3606;52.930;8.644;2024-02-26T09:55:58;18.20;;;11.07;;
7128;SDS011;3606;52.930;8.644;2024-02-26T09:58:24;17.03;;;11.53;;
7128;SDS011;3606;52.930;8.644;2024-02-26T10:00:53;16.40;;;10.07;;
7128;SDS011;3606;52.930;8.644;2024-02-26T10:03:25;14.07;;;10.33;;
7128;SDS011;3606;52.930;8.644;2024-02-26T10:06:01;15.40;;;10.93;;
7128;SDS011;3606;52.930;8.644;2024-02-26T10:08:29;15.63;;;10.67;;
7128;SDS011;3606;52.930;8.644;2024-02-26T10:10:55;16.03;;;10.13;;
7128;SDS011;3606;52.930;8.644;2024-02-26T10:13:21;15.63;;;10.20;;
7128;SDS011;3606;52.930;8.644;2024-02-26T10:15:48;14.00;;;9.77;;
7128;SDS011;3606;52.930;8.644;2024-02-26T10:18:13;13.03;;;9.17;;
7128;SDS011;3606;52.930;8.644;2024-02-26T10:20:39;16.17;;;9.43;;
7128;SDS011;3606;52.930;8.644;2024-02-26T10:23:04;13.10;;;9.40;;
7128;SDS011;3606;52.930;8.644;2024-02-26T10:25:30;14.77;;;9.37;;
7128;SDS011;3606;52.930;8.644;2024-02-26T10:28:00;14.07;;;9.40;;
7128;SDS011;3606;52.930;8.644;2024-02-26T10:30:29;12.00;;;8.87;;
7128;SDS011;3606;52.930;8.644;2024-02-26T10:32:55;15.50;;;9.80;;
7128;SDS011;3606;52.930;8.644;2024-02-26T10:35:22;12.37;;;8.67;;
7128;SDS011;3606;52.930;8.644;2024-02-26T10:37:49;14.73;;;8.60;;
7128;SDS011;3606;52.930;8.644;2024-02-26T10:40:15;13.20;;;8.70;;
7128;SDS011;3606;52.930;8.644;2024-02-26T10:42:42;13.90;;;9.23;;
7128;SDS011;3606;52.930;8.644;2024-02-26T10:45:10;15.40;;;8.97;;
7128;SDS011;3606;52.930;8.644;2024-02-26T10:47:36;11.77;;;8.47;;
7128;SDS011;3606;52.930;8.644;2024-02-26T10:50:02;11.73;;;8.13;;
7128;SDS011;3606;52.930;8.644;2024-02-26T10:52:33;14.33;;;9.00;;
7128;SDS011;3606;52.930;8.644;2024-02-26T10:55:02;10.00;;;7.67;;
7128;SDS011;3606;52.930;8.644;2024-02-26T10:57:33;12.50;;;8.53;;
7128;SDS011;3606;52.930;8.644;2024-02-26T11:00:03;10.63;;;7.57;;
7128;SDS011;3606;52.930;8.644;2024-02-26T11:02:31;11.90;;;7.80;;
7128;SDS011;3606;52.930;8.644;2024-02-26T11:04:59;11.57;;;8.13;;
7128;SDS011;3606;52.930;8.644;2024-02-26T11:07:29;14.60;;;7.57;;
7128;SDS011;3606;52.930;8.644;2024-02-26T11:09:57;8.30;;;6.10;;
7128;SDS011;3606;52.930;8.644;2024-02-26T11:12:24;10.23;;;6.90;;
7128;SDS011;3606;52.930;8.644;2024-02-26T11:14:51;9.63;;;6.83;;
7128;SDS011;3606;52.930;8.644;2024-02-26T11:17:21;9.47;;;6.77;;
7128;SDS011;3606;52.930;8.644;2024-02-26T11:19:48;8.57;;;6.20;;
7128;SDS011;3606;52.930;8.644;2024-02-26T11:22:16;7.60;;;5.87;;
7128;SDS011;3606;52.930;8.644;2024-02-26T11:24:42;9.37;;;6.10;;
7128;SDS011;3606;52.930;8.644;2024-02-26T11:27:09;10.53;;;6.27;;
7128;SDS011;3606;52.930;8.644;2024-02-26T11:29:47;10.97;;;6.67;;
7128;SDS011;3606;52.930;8.644;2024-02-26T11:32:16;11.83;;;6.73;;
7128;SDS011;3606;52.930;8.644;2024-02-26T11:34:43;9.27;;;5.80;;
7128;SDS011;3606;52.930;8.644;2024-02-26T11:37:18;8.57;;;5.77;;
7128;SDS011;3606;52.930;8.644;2024-02-26T11:39:45;7.53;;;5.80;;
7128;SDS011;3606;52.930;8.644;2024-02-26T11:42:13;9.23;;;6.87;;
7128;SDS011;3606;52.930;8.644;2024-02-26T11:44:39;7.83;;;5.73;;
7128;SDS011;3606;52.930;8.644;2024-02-26T11:47:13;7.03;;;6.07;;
7128;SDS011;3606;52.930;8.644;2024-02-26T11:49:43;8.20;;;5.87;;
7128;SDS011;3606;52.930;8.644;2024-02-26T11:52:09;8.30;;;6.20;;
7128;SDS011;3606;52.930;8.644;2024-02-26T11:54:51;8.10;;;5.70;;
7128;SDS011;3606;52.930;8.644;2024-02-26T11:57:28;7.23;;;5.90;;
7128;SDS011;3606;52.930;8.644;2024-02-26T12:00:03;7.93;;;5.70;;
7128;SDS011;3606;52.930;8.644;2024-02-26T12:02:46;6.70;;;5.20;;
7128;SDS011;3606;52.930;8.644;2024-02-26T12:05:13;7.53;;;5.27;;
7128;SDS011;3606;52.930;8.644;2024-02-26T12:07:47;7.10;;;5.00;;
7128;SDS011;3606;52.930;8.644;2024-02-26T12:10:23;7.40;;;5.17;;
7128;SDS011;3606;52.930;8.644;2024-02-26T12:12:54;6.97;;;5.73;;
7128;SDS011;3606;52.930;8.644;2024-02-26T12:15:30;8.93;;;5.90;;
7128;SDS011;3606;52.930;8.644;2024-02-26T12:17:58;7.47;;;5.43;;
7128;SDS011;3606;52.930;8.644;2024-02-26T12:20:25;7.20;;;5.73;;
7128;SDS011;3606;52.930;8.644;2024-02-26T12:22:50;8.90;;;5.90;;
7128;SDS011;3606;52.930;8.644;2024-02-26T12:25:17;8.60;;;6.33;;
7128;SDS011;3606;52.930;8.644;2024-02-26T12:27:47;11.50;;;6.70;;
7128;SDS011;3606;52.930;8.644;2024-02-26T12:30:12;8.90;;;6.43;;
7128;SDS011;3606;52.930;8.644;2024-02-26T12:32:38;11.47;;;6.77;;
7128;SDS011;3606;52.930;8.644;2024-02-26T12:35:05;8.80;;;6.47;;
7128;SDS011;3606;52.930;8.644;2024-02-26T12:37:31;9.77;;;7.03;;
7128;SDS011;3606;52.930;8.644;2024-02-26T12:39:57;9.43;;;6.83;;
7128;SDS011;3606;52.930;8.644;2024-02-26T12:42:23;10.03;;;6.87;;
7128;SDS011;3606;52.930;8.644;2024-02-26T12:44:49;8.93;;;6.63;;
7128;SDS011;3606;52.930;8.644;2024-02-26T12:47:15;7.43;;;6.37;;
7128;SDS011;3606;52.930;8.644;2024-02-26T12:49:46;7.93;;;6.20;;
7128;SDS011;3606;52.930;8.644;2024-02-26T12:52:13;9.03;;;7.00;;
7128;SDS011;3606;52.930;8.644;2024-02-26T12:54:39;8.30;;;5.93;;
7128;SDS011;3606;52.930;8.644;2024-02-26T12:57:07;10.03;;;6.83;;
7128;SDS011;3606;52.930;8.644;2024-02-26T12:59:34;11.17;;;7.40;;
7128;SDS011;3606;52.930;8.644;2024-02-26T13:02:01;10.63;;;7.37;;
7128;SDS011;3606;52.930;8.644;2024-02-26T13:04:28;9.37;;;6.93;;
7128;SDS011;3606;52.930;8.644;2024-02-26T13:06:55;7.53;;;6.47;;
7128;SDS011;3606;52.930;8.644;2024-02-26T13:09:26;9.10;;;6.90;;
7128;SDS011;3606;52.930;8.644;2024-02-26T13:11:53;9.83;;;7.47;;
7128;SDS011;3606;52.930;8.644;2024-02-26T13:14:19;11.90;;;6.50;;
7128;SDS011;3606;52.930;8.644;2024-02-26T13:16:54;7.83;;;5.97;;
7128;SDS011;3606;52.930;8.644;2024-02-26T13:19:20;9.40;;;6.10;;
7128;SDS011;3606;52.930;8.644;2024-02-26T13:21:46;9.70;;;6.57;;
7128;SDS011;3606;52.930;8.644;2024-02-26T13:24:12;9.27;;;6.67;;
7128;SDS011;3606;52.930;8.644;2024-02-26T13:26:38;7.20;;;6.07;;
7128;SDS011;3606;52.930;8.644;2024-02-26T13:29:04;8.83;;;6.27;;
7128;SDS011;3606;52.930;8.644;2024-02-26T13:31:30;9.90;;;6.50;;
7128;SDS011;3606;52.930;8.644;2024-02-26T13:33:55;9.60;;;7.23;;
7128;SDS011;3606;52.930;8.644;2024-02-26T13:36:22;8.83;;;7.23;;
7128;SDS011;3606;52.930;8.644;2024-02-26T13:38:51;10.97;;;7.50;;
7128;SDS011;3606;52.930;8.644;2024-02-26T13:41:18;10.27;;;7.30;;
7128;SDS011;3606;52.930;8.644;2024-02-26T13:43:43;8.97;;;6.57;;
7128;SDS011;3606;52.930;8.644;2024-02-26T13:46:09;9.50;;;6.63;;
7128;SDS011;3606;52.930;8.644;2024-02-26T13:48:37;10.40;;;7.23;;
7128;SDS011;3606;52.930;8.644;2024-02-26T13:51:03;9.93;;;7.17;;
7128;SDS011;3606;52.930;8.644;2024-02-26T13:53:29;8.33;;;6.70;;
7128;SDS011;3606;52.930;8.644;2024-02-26T13:55:55;9.67;;;7.47;;
7128;SDS011;3606;52.930;8.644;2024-02-26T13:58:20;10.00;;;7.50;;
7128;SDS011;3606;52.930;8.644;2024-02-26T14:00:48;9.93;;;7.20;;
7128;SDS011;3606;52.930;8.644;2024-02-26T14:03:14;11.77;;;6.77;;
7128;SDS011;3606;52.930;8.644;2024-02-26T14:05:41;10.57;;;7.23;;
7128;SDS011;3606;52.930;8.644;2024-02-26T14:08:07;8.80;;;7.23;;
7128;SDS011;3606;52.930;8.644;2024-02-26T14:10:32;7.63;;;6.63;;
7128;SDS011;3606;52.930;8.644;2024-02-26T14:12:58;10.47;;;7.17;;
7128;SDS011;3606;52.930;8.644;2024-02-26T14:15:24;8.73;;;6.50;;
7128;SDS011;3606;52.930;8.644;2024-02-26T14:17:51;9.43;;;7.03;;
7128;SDS011;3606;52.930;8.644;2024-02-26T14:20:24;8.67;;;6.77;;
7128;SDS011;3606;52.930;8.644;2024-02-26T14:22:51;8.90;;;6.63;;
7128;SDS011;3606;52.930;8.644;2024-02-26T14:25:22;8.17;;;6.63;;
7128;SDS011;3606;52.930;8.644;2024-02-26T14:27:49;11.57;;;7.03;;
7128;SDS011;3606;52.930;8.644;2024-02-26T14:30:14;9.70;;;6.90;;
7128;SDS011;3606;52.930;8.644;2024-02-26T14:32:40;12.27;;;6.80;;
7128;SDS011;3606;52.930;8.644;2024-02-26T14:35:09;8.63;;;7.00;;
7128;SDS011;3606;52.930;8.644;2024-02-26T14:37:35;10.30;;;6.53;;
7128;SDS011;3606;52.930;8.644;2024-02-26T14:40:01;7.37;;;6.10;;
7128;SDS011;3606;52.930;8.644;2024-02-26T14:42:28;10.77;;;7.40;;
7128;SDS011;3606;52.930;8.644;2024-02-26T14:44:54;8.67;;;6.43;;
7128;SDS011;3606;52.930;8.644;2024-02-26T14:47:20;8.20;;;5.93;;
7128;SDS011;3606;52.930;8.644;2024-02-26T14:49:45;8.70;;;6.27;;
7128;SDS011;3606;52.930;8.644;2024-02-26T14:52:13;9.63;;;7.10;;
7128;SDS011;3606;52.930;8.644;2024-02-26T14:54:39;8.57;;;6.27;;